createdAt,value
2019-04-22T13:39:31.557Z,68.96
2019-04-22T13:42:05.989Z,67.55
2019-04-22T13:44:37.998Z,67.21
2019-04-22T13:47:29.779Z,67.27
2019-04-22T13:50:25.553Z,67.75
2019-04-22T13:52:56.309Z,67.15
2019-04-22T13:55:25.373Z,66.41
2019-04-22T13:57:47.183Z,66.38
2019-04-22T14:00:05.701Z,66.38
2019-04-22T14:02:37.391Z,66.23
2019-04-22T14:05:12.872Z,66.17
2019-04-22T14:07:46.698Z,66.66
2019-04-22T14:10:26.938Z,66.55
2019-04-22T14:13:00.194Z,66.43
2019-04-22T14:15:31.965Z,65.97
2019-04-22T14:18:05.138Z,66.42
2019-04-22T14:20:38.693Z,66.14
2019-04-22T14:23:11.711Z,66.41
2019-04-22T14:25:48.516Z,66.41
2019-04-22T14:28:21.438Z,66.35
2019-04-22T14:30:52.650Z,66.56
2019-04-22T14:33:24.429Z,66.72
2019-04-22T14:35:56.450Z,66.78
2019-04-22T14:38:34.734Z,66.91
2019-04-22T14:41:08.278Z,66.54
2019-04-22T14:44:23.367Z,66.52
2019-04-22T14:46:39.088Z,66.48
2019-04-22T14:49:10.106Z,66.56
2019-04-22T14:51:46.412Z,66.64
2019-04-22T14:54:10.135Z,66.72
2019-04-22T14:56:28.812Z,66.95
2019-04-22T14:59:02.929Z,67.00
2019-04-22T15:01:35.032Z,67.40
2019-04-22T15:04:07.292Z,67.11
2019-04-22T15:06:40.404Z,67.12
2019-04-22T15:09:14.399Z,67.27
2019-04-22T15:11:59.469Z,67.66
2019-04-22T15:14:21.467Z,67.70
2019-04-22T15:16:55.136Z,67.95
2019-04-22T15:19:27.665Z,68.10
2019-04-22T15:22:08.411Z,67.84
2019-04-22T15:24:40.704Z,68.27
2019-04-22T15:27:12.036Z,68.30
2019-04-22T15:29:43.620Z,69.00
2019-04-22T15:32:18.743Z,69.36
2019-04-22T15:34:51.170Z,69.27
2019-04-22T15:37:26.435Z,69.75
2019-04-22T15:40:00.566Z,69.82
2019-04-22T15:42:37.721Z,69.58
2019-04-22T15:45:08.657Z,69.68
2019-04-22T15:47:41.801Z,69.86
2019-04-22T15:50:19.799Z,70.05
2019-04-22T15:53:00.442Z,70.37
2019-04-22T15:55:32.340Z,70.49
2019-04-22T15:58:05.750Z,70.77
2019-04-22T16:00:51.603Z,70.55
2019-04-22T16:03:29.810Z,70.54
2019-04-22T16:06:02.168Z,70.70
2019-04-22T16:08:35.975Z,70.22
2019-04-22T16:11:13.984Z,69.80
2019-04-22T16:13:46.595Z,69.50
2019-04-22T16:16:18.807Z,69.52
2019-04-22T16:18:52.040Z,69.34
2019-04-22T16:21:32.812Z,69.46
2019-04-22T16:23:58.607Z,69.25
2019-04-22T16:26:32.567Z,68.73
2019-04-22T16:29:09.420Z,68.59
2019-04-22T16:31:41.474Z,67.41
2019-04-22T16:34:23.830Z,66.76
2019-04-22T16:36:54.623Z,67.02
2019-04-22T16:39:30.935Z,67.85
2019-04-22T16:42:06.754Z,67.55
2019-04-22T16:44:40.626Z,67.10
2019-04-22T16:47:13.345Z,67.99
2019-04-22T16:49:45.676Z,68.26
2019-04-22T16:52:19.914Z,72.52
2019-04-22T16:54:52.930Z,75.03
2019-04-22T16:57:26.031Z,74.82
2019-04-22T16:59:58.483Z,77.36
2019-04-22T17:02:32.914Z,79.18
2019-04-22T17:05:07.466Z,80.33
2019-04-22T17:07:40.248Z,81.71
2019-04-22T17:10:13.514Z,81.63
2019-04-22T17:12:54.304Z,80.64
2019-04-22T17:15:27.033Z,82.13
2019-04-22T17:17:59.209Z,81.13
2019-04-22T17:20:31.291Z,82.24
2019-04-22T17:23:07.445Z,83.36
2019-04-22T17:25:40.510Z,83.79
2019-04-22T17:28:13.413Z,85.54
2019-04-22T17:30:48.182Z,84.17
2019-04-22T17:33:19.382Z,83.52
2019-04-22T17:35:52.805Z,83.75
2019-04-22T17:38:33.932Z,84.95
2019-04-22T17:41:11.480Z,84.31
2019-04-22T17:43:56.007Z,86.53
2019-04-22T17:46:25.192Z,82.31
2019-04-22T17:49:05.976Z,81.59
2019-04-22T17:51:38.202Z,83.08
2019-04-22T17:54:08.275Z,84.14
2019-04-22T17:56:44.793Z,79.07
2019-04-22T17:59:22.921Z,80.47
2019-04-22T18:01:49.193Z,83.23
2019-04-22T18:04:04.846Z,80.21
2019-04-22T18:07:02.143Z,82.58
2019-04-22T18:10:14.195Z,82.95
2019-04-22T18:12:20.109Z,84.05
2019-04-22T18:14:49.713Z,84.93
2019-04-22T18:17:27.290Z,85.26
2019-04-22T18:19:46.283Z,84.26
2019-04-22T18:22:19.755Z,83.03
2019-04-22T18:24:52.906Z,84.27
2019-04-22T18:30:02.205Z,84.15
2019-04-22T18:32:30.253Z,85.15
2019-04-22T18:35:10.540Z,84.37
2019-04-22T18:37:46.987Z,84.77
2019-04-22T18:40:18.166Z,84.29
2019-04-22T18:42:55.218Z,82.64
2019-04-22T18:47:53.116Z,86.67
2019-04-22T18:50:45.283Z,82.74
2019-04-22T18:53:16.014Z,83.69
2019-04-22T18:55:38.842Z,82.73
2019-04-22T18:58:16.319Z,80.55
2019-04-22T19:00:34.334Z,81.12
2019-04-22T19:03:13.067Z,79.04
2019-04-22T19:06:03.595Z,80.11
2019-04-22T19:08:50.112Z,80.77
2019-04-22T19:11:28.615Z,82.95
2019-04-22T19:16:32.063Z,82.34
2019-04-22T19:19:17.835Z,82.17
2019-04-22T19:21:26.637Z,82.53
2019-04-22T19:24:00.071Z,82.76
2019-04-22T19:26:46.044Z,81.93
2019-04-22T19:29:05.598Z,81.70
2019-04-22T19:31:46.600Z,81.93
2019-04-22T19:34:20.573Z,81.67
2019-04-22T19:36:55.984Z,80.40
2019-04-22T19:39:26.530Z,80.81
2019-04-22T19:42:00.922Z,81.32
2019-04-22T19:44:36.261Z,80.85
2019-04-22T19:47:20.835Z,82.31
2019-04-22T19:49:49.604Z,81.63
2019-04-22T19:52:20.990Z,80.90
2019-04-22T19:54:46.738Z,83.29
2019-04-22T19:57:11.723Z,79.19
2019-04-22T19:59:51.516Z,80.31
2019-04-22T20:02:24.957Z,82.53
2019-04-22T20:05:11.131Z,81.27
2019-04-22T20:07:34.436Z,81.64
2019-04-22T20:10:22.112Z,82.87
2019-04-22T20:12:48.676Z,83.22
2019-04-22T20:15:25.875Z,80.75
2019-04-22T20:20:54.071Z,81.52
2019-04-22T20:23:02.895Z,79.81
2019-04-22T20:25:38.970Z,80.82
2019-04-22T20:28:13.218Z,80.94
2019-04-22T20:30:46.182Z,81.42
2019-04-22T20:33:18.990Z,79.56
2019-04-22T20:35:51.938Z,78.76
2019-04-22T20:38:25.948Z,81.58
2019-04-22T20:41:02.738Z,79.19
2019-04-22T20:43:44.888Z,77.76
2019-04-22T20:46:11.421Z,78.72
2019-04-22T20:48:50.015Z,79.76
2019-04-22T20:51:14.014Z,78.70
2019-04-22T20:53:52.298Z,79.64
2019-04-22T20:56:18.607Z,78.65
2019-04-22T20:58:56.141Z,80.39
2019-04-22T21:01:28.328Z,78.12
2019-04-22T21:03:54.798Z,78.80
2019-04-22T21:06:36.894Z,80.23
2019-04-22T21:09:12.119Z,80.72
2019-04-22T21:11:45.042Z,80.75
2019-04-22T21:14:14.819Z,80.41
2019-04-22T21:16:51.703Z,79.15
2019-04-22T21:19:38.569Z,81.78
2019-04-22T21:22:06.014Z,78.91
2019-04-22T21:24:33.040Z,80.09
2019-04-22T21:27:10.272Z,78.73
2019-04-22T21:29:34.697Z,79.52
2019-04-22T21:32:21.720Z,79.58
2019-04-22T21:34:52.726Z,79.94
2019-04-22T21:37:30.175Z,81.01
2019-04-22T21:39:46.347Z,79.42
2019-04-22T21:42:26.628Z,80.46
2019-04-22T21:44:55.707Z,79.86
2019-04-22T21:47:35.326Z,81.70
2019-04-22T21:50:21.433Z,82.15
2019-04-22T21:52:41.779Z,80.66
2019-04-22T21:55:15.824Z,79.96
2019-04-22T21:57:55.529Z,79.97
2019-04-22T22:00:31.217Z,78.75
2019-04-22T22:02:58.902Z,80.35
2019-04-22T22:05:21.760Z,80.33
2019-04-22T22:07:52.109Z,78.11
2019-04-22T22:10:41.843Z,77.40
2019-04-22T22:13:11.087Z,77.88
2019-04-22T22:15:43.216Z,77.05
2019-04-22T22:18:16.424Z,76.09
2019-04-22T22:21:10.963Z,76.31
2019-04-22T22:23:25.179Z,75.13
2019-04-22T22:25:55.804Z,75.26
2019-04-22T22:28:45.392Z,76.19
2019-04-22T22:31:10.315Z,77.31
2019-04-22T22:33:35.521Z,77.98
2019-04-22T22:36:05.079Z,77.93
2019-04-22T22:38:41.579Z,79.05
2019-04-22T22:41:00.132Z,79.27
2019-04-22T22:43:37.536Z,75.78
2019-04-22T22:46:20.454Z,74.95
